sensor_id;sensor_type;location;lat;lon;timestamp;pressure;altitude;pressure_sealevel;temperature;humidity
46456;BME280;64052;47.466;9.094;2023-04-25T00:02:39;95217.63;;;12.97;56.74
46456;BME280;64052;47.466;9.094;2023-04-25T00:07:41;95206.06;;;12.98;55.75
46456;BME280;64052;47.466;9.094;2023-04-25T00:12:42;95204.53;;;12.96;55.83
46456;BME280;64052;47.466;9.094;2023-04-25T00:17:44;95197.78;;;13.01;56.04
46456;BME280;64052;47.466;9.094;2023-04-25T00:22:45;95197.09;;;12.91;56.15
46456;BME280;64052;47.466;9.094;2023-04-25T00:27:47;95185.00;;;12.80;55.06
46456;BME280;64052;47.466;9.094;2023-04-25T00:32:48;95174.41;;;12.88;54.82
46456;BME280;64052;47.466;9.094;2023-04-25T00:37:50;95175.09;;;12.99;54.88
46456;BME280;64052;47.466;9.094;2023-04-25T00:42:52;95175.78;;;12.92;56.07
46456;BME280;64052;47.466;9.094;2023-04-25T00:47:54;95164.53;;;12.90;56.09
46456;BME280;64052;47.466;9.094;2023-04-25T00:52:56;95160.38;;;12.88;55.88
46456;BME280;64052;47.466;9.094;2023-04-25T00:57:58;95163.19;;;12.86;55.35
46456;BME280;64052;47.466;9.094;2023-04-25T01:02:59;95171.94;;;12.78;55.56
46456;BME280;64052;47.466;9.094;2023-04-25T01:08:02;95163.00;;;12.79;54.46
46456;BME280;64052;47.466;9.094;2023-04-25T01:13:03;95165.50;;;12.98;53.95
46456;BME280;64052;47.466;9.094;2023-04-25T01:18:05;95162.50;;;12.84;53.91
46456;BME280;64052;47.466;9.094;2023-04-25T01:23:07;95155.72;;;12.82;52.96
46456;BME280;64052;47.466;9.094;2023-04-25T01:28:09;95152.94;;;12.83;53.09
46456;BME280;64052;47.466;9.094;2023-04-25T01:33:12;95148.84;;;12.97;51.22
46456;BME280;64052;47.466;9.094;2023-04-25T01:38:15;95144.34;;;12.81;52.13
46456;BME280;64052;47.466;9.094;2023-04-25T01:43:17;95147.16;;;12.88;50.68
46456;BME280;64052;47.466;9.094;2023-04-25T01:48:19;95144.66;;;12.86;50.16
46456;BME280;64052;47.466;9.094;2023-04-25T01:53:21;95142.97;;;12.77;50.62
46456;BME280;64052;47.466;9.094;2023-04-25T01:58:23;95142.47;;;12.65;50.66
46456;BME280;64052;47.466;9.094;2023-04-25T02:04:02;95149.75;;;12.63;50.06
46456;BME280;64052;47.466;9.094;2023-04-25T02:09:09;95148.28;;;12.69;47.80
46456;BME280;64052;47.466;9.094;2023-04-25T02:14:16;95157.88;;;12.78;48.24
46456;BME280;64052;47.466;9.094;2023-04-25T02:19:31;95151.03;;;12.59;49.09
46456;BME280;64052;47.466;9.094;2023-04-25T02:24:33;95160.25;;;12.46;49.74
46456;BME280;64052;47.466;9.094;2023-04-25T02:29:34;95163.09;;;12.18;50.18
46456;BME280;64052;47.466;9.094;2023-04-25T02:34:36;95153.38;;;12.19;50.55
46456;BME280;64052;47.466;9.094;2023-04-25T02:39:38;95145.50;;;12.01;50.33
46456;BME280;64052;47.466;9.094;2023-04-25T02:44:39;95144.97;;;11.71;51.79
46456;BME280;64052;47.466;9.094;2023-04-25T02:49:40;95146.69;;;11.80;53.13
46456;BME280;64052;47.466;9.094;2023-04-25T02:54:43;95144.38;;;11.77;53.58
46456;BME280;64052;47.466;9.094;2023-04-25T02:59:44;95138.63;;;11.81;53.61
46456;BME280;64052;47.466;9.094;2023-04-25T03:04:46;95127.69;;;11.50;53.93
46456;BME280;64052;47.466;9.094;2023-04-25T03:09:48;95126.41;;;11.54;54.71
46456;BME280;64052;47.466;9.094;2023-04-25T03:14:49;95130.63;;;11.47;55.07
46456;BME280;64052;47.466;9.094;2023-04-25T03:19:51;95116.56;;;11.64;54.89
46456;BME280;64052;47.466;9.094;2023-04-25T03:24:53;95117.19;;;11.58;54.71
46456;BME280;64052;47.466;9.094;2023-04-25T03:29:54;95115.19;;;11.60;54.25
46456;BME280;64052;47.466;9.094;2023-04-25T03:34:56;95118.63;;;11.52;54.08
46456;BME280;64052;47.466;9.094;2023-04-25T03:39:59;95110.06;;;11.32;54.97
46456;BME280;64052;47.466;9.094;2023-04-25T03:45:19;95121.53;;;11.23;55.56
46456;BME280;64052;47.466;9.094;2023-04-25T03:50:21;95109.06;;;11.25;55.63
46456;BME280;64052;47.466;9.094;2023-04-25T03:55:23;95108.66;;;11.20;55.71
46456;BME280;64052;47.466;9.094;2023-04-25T04:00:25;95102.72;;;11.18;55.44
46456;BME280;64052;47.466;9.094;2023-04-25T04:05:27;95104.78;;;11.32;54.81
46456;BME280;64052;47.466;9.094;2023-04-25T04:10:30;95095.00;;;11.24;55.24
46456;BME280;64052;47.466;9.094;2023-04-25T04:15:32;95104.44;;;11.27;54.76
46456;BME280;64052;47.466;9.094;2023-04-25T04:20:34;95108.75;;;11.10;55.00
46456;BME280;64052;47.466;9.094;2023-04-25T04:25:37;95111.78;;;10.79;54.43
46456;BME280;64052;47.466;9.094;2023-04-25T04:30:50;95104.25;;;10.66;53.93
46456;BME280;64052;47.466;9.094;2023-04-25T04:35:52;95100.47;;;10.50;55.21
46456;BME280;64052;47.466;9.094;2023-04-25T04:40:54;95092.81;;;10.57;56.19
46456;BME280;64052;47.466;9.094;2023-04-25T04:46:06;95100.84;;;10.56;56.14
46456;BME280;64052;47.466;9.094;2023-04-25T04:51:26;95113.06;;;10.57;55.41
46456;BME280;64052;47.466;9.094;2023-04-25T04:56:28;95108.84;;;10.64;55.44
46456;BME280;64052;47.466;9.094;2023-04-25T05:01:52;95106.50;;;10.97;55.34
46456;BME280;64052;47.466;9.094;2023-04-25T05:07:10;95100.38;;;11.15;55.24
46456;BME280;64052;47.466;9.094;2023-04-25T05:12:35;95102.00;;;11.34;54.84
46456;BME280;64052;47.466;9.094;2023-04-25T05:17:56;95105.63;;;11.59;53.60
46456;BME280;64052;47.466;9.094;2023-04-25T05:23:19;95098.28;;;11.45;54.58
46456;BME280;64052;47.466;9.094;2023-04-25T05:28:40;95096.63;;;11.44;54.73
46456;BME280;64052;47.466;9.094;2023-04-25T05:33:53;95103.69;;;11.61;54.24
46456;BME280;64052;47.466;9.094;2023-04-25T05:38:56;95093.47;;;11.66;54.29
46456;BME280;64052;47.466;9.094;2023-04-25T05:44:16;95096.28;;;12.00;52.58
46456;BME280;64052;47.466;9.094;2023-04-25T05:49:37;95093.13;;;11.96;53.74
46456;BME280;64052;47.466;9.094;2023-04-25T05:54:59;95096.13;;;12.01;53.26
46456;BME280;64052;47.466;9.094;2023-04-25T06:00:01;95092.16;;;12.40;51.88
46456;BME280;64052;47.466;9.094;2023-04-25T06:05:23;95088.84;;;12.38;52.09
46456;BME280;64052;47.466;9.094;2023-04-25T06:10:25;95098.94;;;12.43;51.04
46456;BME280;64052;47.466;9.094;2023-04-25T06:15:27;95097.97;;;12.52;50.70
46456;BME280;64052;47.466;9.094;2023-04-25T06:20:30;95100.31;;;12.63;50.59
46456;BME280;64052;47.466;9.094;2023-04-25T06:25:33;95095.50;;;12.50;52.00
46456;BME280;64052;47.466;9.094;2023-04-25T06:30:36;95090.72;;;12.54;52.75
46456;BME280;64052;47.466;9.094;2023-04-25T06:35:42;95075.69;;;12.71;52.76
46456;BME280;64052;47.466;9.094;2023-04-25T06:40:46;95079.84;;;12.99;50.50
46456;BME280;64052;47.466;9.094;2023-04-25T06:45:48;95080.34;;;13.02;49.55
46456;BME280;64052;47.466;9.094;2023-04-25T06:50:50;95076.22;;;13.00;50.49
46456;BME280;64052;47.466;9.094;2023-04-25T06:55:52;95086.97;;;12.90;50.84
46456;BME280;64052;47.466;9.094;2023-04-25T07:00:56;95083.31;;;12.91;51.22
46456;BME280;64052;47.466;9.094;2023-04-25T07:06:00;95102.19;;;12.88;51.82
46456;BME280;64052;47.466;9.094;2023-04-25T07:11:03;95120.97;;;12.60;50.21
46456;BME280;64052;47.466;9.094;2023-04-25T07:16:05;95139.91;;;12.04;51.68
46456;BME280;64052;47.466;9.094;2023-04-25T07:21:08;95142.38;;;11.26;54.44
46456;BME280;64052;47.466;9.094;2023-04-25T07:26:11;95142.31;;;11.00;55.47
46456;BME280;64052;47.466;9.094;2023-04-25T07:31:25;95139.88;;;11.06;56.14
46456;BME280;64052;47.466;9.094;2023-04-25T07:36:28;95151.88;;;11.01;56.83
46456;BME280;64052;47.466;9.094;2023-04-25T07:41:29;95158.81;;;11.02;57.76
46456;BME280;64052;47.466;9.094;2023-04-25T07:46:31;95145.25;;;10.96;58.41
46456;BME280;64052;47.466;9.094;2023-04-25T07:51:33;95143.38;;;10.89;58.43
46456;BME280;64052;47.466;9.094;2023-04-25T07:56:39;95158.88;;;10.92;57.75
46456;BME280;64052;47.466;9.094;2023-04-25T08:01:53;95171.09;;;10.93;57.71
46456;BME280;64052;47.466;9.094;2023-04-25T08:06:55;95174.34;;;10.87;58.64
46456;BME280;64052;47.466;9.094;2023-04-25T08:12:01;95177.66;;;11.07;58.31
46456;BME280;64052;47.466;9.094;2023-04-25T08:17:06;95181.34;;;11.32;57.71
46456;BME280;64052;47.466;9.094;2023-04-25T08:22:13;95192.75;;;11.59;56.78
46456;BME280;64052;47.466;9.094;2023-04-25T08:27:25;95199.47;;;11.53;57.07
46456;BME280;64052;47.466;9.094;2023-04-25T08:32:27;95188.38;;;11.68;56.45
46456;BME280;64052;47.466;9.094;2023-04-25T08:37:51;95198.66;;;11.53;57.11
46456;BME280;64052;47.466;9.094;2023-04-25T08:42:54;95210.22;;;11.52;56.20
46456;BME280;64052;47.466;9.094;2023-04-25T08:47:57;95218.56;;;11.65;57.12
46456;BME280;64052;47.466;9.094;2023-04-25T08:53:04;95225.41;;;11.58;55.90
46456;BME280;64052;47.466;9.094;2023-04-25T08:58:06;95226.34;;;11.67;55.87
46456;BME280;64052;47.466;9.094;2023-04-25T09:03:10;95226.16;;;11.69;57.19
46456;BME280;64052;47.466;9.094;2023-04-25T09:08:12;95239.19;;;11.88;56.67
46456;BME280;64052;47.466;9.094;2023-04-25T09:13:24;95240.03;;;11.71;56.64
46456;BME280;64052;47.466;9.094;2023-04-25T09:18:49;95246.31;;;11.70;56.09
46456;BME280;64052;47.466;9.094;2023-04-25T09:23:51;95258.84;;;11.67;55.96
46456;BME280;64052;47.466;9.094;2023-04-25T09:29:07;95261.47;;;11.67;56.89
46456;BME280;64052;47.466;9.094;2023-04-25T09:34:12;95266.69;;;11.59;55.92
46456;BME280;64052;47.466;9.094;2023-04-25T09:39:19;95271.59;;;11.54;56.75
46456;BME280;64052;47.466;9.094;2023-04-25T09:44:32;95276.75;;;11.56;56.93
46456;BME280;64052;47.466;9.094;2023-04-25T09:49:34;95287.97;;;11.39;58.79
46456;BME280;64052;47.466;9.094;2023-04-25T09:54:44;95293.94;;;11.60;58.74
46456;BME280;64052;47.466;9.094;2023-04-25T09:59:55;95294.69;;;11.88;58.62
46456;BME280;64052;47.466;9.094;2023-04-25T10:04:58;95299.19;;;12.14;59.94
46456;BME280;64052;47.466;9.094;2023-04-25T10:10:08;95287.75;;;12.05;59.57
46456;BME280;64052;47.466;9.094;2023-04-25T10:15:10;95287.94;;;12.39;59.10
46456;BME280;64052;47.466;9.094;2023-04-25T10:20:13;95288.53;;;12.59;58.96
46456;BME280;64052;47.466;9.094;2023-04-25T10:25:15;95290.50;;;12.48;57.54
46456;BME280;64052;47.466;9.094;2023-04-25T10:30:17;95290.56;;;12.30;56.88
46456;BME280;64052;47.466;9.094;2023-04-25T10:35:25;95284.94;;;12.60;55.47
46456;BME280;64052;47.466;9.094;2023-04-25T10:40:27;95285.56;;;12.97;55.02
46456;BME280;64052;47.466;9.094;2023-04-25T10:45:28;95301.97;;;13.00;54.24
46456;BME280;64052;47.466;9.094;2023-04-25T10:50:37;95299.94;;;12.86;53.48
46456;BME280;64052;47.466;9.094;2023-04-25T10:55:51;95296.84;;;12.64;52.00
46456;BME280;64052;47.466;9.094;2023-04-25T11:00:53;95303.06;;;12.55;52.36
46456;BME280;64052;47.466;9.094;2023-04-25T11:05:59;95301.56;;;13.30;52.17
46456;BME280;64052;47.466;9.094;2023-04-25T11:11:02;95298.91;;;13.21;49.52
46456;BME280;64052;47.466;9.094;2023-04-25T11:16:07;95300.91;;;13.36;50.08
46456;BME280;64052;47.466;9.094;2023-04-25T11:21:30;95302.94;;;13.42;51.31
46456;BME280;64052;47.466;9.094;2023-04-25T11:26:31;95299.13;;;13.45;48.87
46456;BME280;64052;47.466;9.094;2023-04-25T11:31:33;95308.34;;;13.24;48.91
46456;BME280;64052;47.466;9.094;2023-04-25T11:36:37;95295.53;;;13.03;48.69
46456;BME280;64052;47.466;9.094;2023-04-25T11:41:41;95297.19;;;13.12;48.09
46456;BME280;64052;47.466;9.094;2023-04-25T11:46:45;95296.50;;;13.53;48.97
46456;BME280;64052;47.466;9.094;2023-04-25T11:51:48;95293.38;;;14.24;47.84
46456;BME280;64052;47.466;9.094;2023-04-25T11:56:49;95305.97;;;13.89;45.83
46456;BME280;64052;47.466;9.094;2023-04-25T12:01:51;95286.72;;;14.37;45.76
46456;BME280;64052;47.466;9.094;2023-04-25T12:06:54;95300.69;;;14.05;43.05
46456;BME280;64052;47.466;9.094;2023-04-25T12:11:57;95304.16;;;14.31;45.54
46456;BME280;64052;47.466;9.094;2023-04-25T12:17:01;95285.28;;;14.26;42.71
46456;BME280;64052;47.466;9.094;2023-04-25T12:22:10;95293.63;;;14.71;45.19
46456;BME280;64052;47.466;9.094;2023-04-25T12:27:20;95298.28;;;15.17;42.80
46456;BME280;64052;47.466;9.094;2023-04-25T12:32:22;95312.66;;;14.91;42.84
46456;BME280;64052;47.466;9.094;2023-04-25T12:37:23;95325.97;;;14.83;42.30
46456;BME280;64052;47.466;9.094;2023-04-25T12:42:25;95327.66;;;14.42;43.56
46456;BME280;64052;47.466;9.094;2023-04-25T12:47:26;95314.09;;;14.04;46.76
46456;BME280;64052;47.466;9.094;2023-04-25T12:52:28;95328.53;;;13.93;44.82
46456;BME280;64052;47.466;9.094;2023-04-25T12:57:29;95331.16;;;13.85;44.55
46456;BME280;64052;47.466;9.094;2023-04-25T13:02:31;95340.78;;;14.02;44.49
46456;BME280;64052;47.466;9.094;2023-04-25T13:07:32;95354.88;;;14.11;44.38
46456;BME280;64052;47.466;9.094;2023-04-25T13:12:36;95358.50;;;14.18;43.64
46456;BME280;64052;47.466;9.094;2023-04-25T13:17:38;95351.56;;;14.34;43.62
46456;BME280;64052;47.466;9.094;2023-04-25T13:22:39;95365.13;;;14.14;44.22
46456;BME280;64052;47.466;9.094;2023-04-25T13:27:41;95372.59;;;14.11;43.67
46456;BME280;64052;47.466;9.094;2023-04-25T13:32:43;95375.75;;;13.98;43.32
46456;BME280;64052;47.466;9.094;2023-04-25T13:37:44;95380.50;;;13.86;43.41
46456;BME280;64052;47.466;9.094;2023-04-25T13:42:46;95382.16;;;13.87;43.24
46456;BME280;64052;47.466;9.094;2023-04-25T13:47:47;95375.34;;;13.68;43.93
46456;BME280;64052;47.466;9.094;2023-04-25T13:52:49;95379.53;;;13.95;45.42
46456;BME280;64052;47.466;9.094;2023-04-25T13:57:51;95382.88;;;14.30;43.68
46456;BME280;64052;47.466;9.094;2023-04-25T14:02:52;95374.25;;;14.37;45.93
46456;BME280;64052;47.466;9.094;2023-04-25T14:07:54;95371.59;;;14.12;47.61
46456;BME280;64052;47.466;9.094;2023-04-25T14:12:55;95365.47;;;14.19;48.66
46456;BME280;64052;47.466;9.094;2023-04-25T14:17:57;95370.09;;;14.17;45.77
46456;BME280;64052;47.466;9.094;2023-04-25T14:22:58;95384.69;;;14.13;47.14
46456;BME280;64052;47.466;9.094;2023-04-25T14:28:00;95381.38;;;14.11;47.99
46456;BME280;64052;47.466;9.094;2023-04-25T14:33:01;95378.38;;;14.31;46.66
46456;BME280;64052;47.466;9.094;2023-04-25T14:38:03;95385.34;;;14.15;47.85
46456;BME280;64052;47.466;9.094;2023-04-25T14:43:04;95384.38;;;14.25;48.55
46456;BME280;64052;47.466;9.094;2023-04-25T14:48:06;95381.72;;;14.33;47.42
46456;BME280;64052;47.466;9.094;2023-04-25T14:53:07;95389.00;;;14.31;45.75
46456;BME280;64052;47.466;9.094;2023-04-25T14:58:09;95404.94;;;14.23;45.51
46456;BME280;64052;47.466;9.094;2023-04-25T15:03:10;95404.72;;;13.99;46.00
46456;BME280;64052;47.466;9.094;2023-04-25T15:08:12;95411.16;;;13.88;47.35
46456;BME280;64052;47.466;9.094;2023-04-25T15:13:14;95416.09;;;13.75;47.10
46456;BME280;64052;47.466;9.094;2023-04-25T15:18:16;95427.81;;;13.56;45.86
46456;BME280;64052;47.466;9.094;2023-04-25T15:23:18;95415.94;;;13.42;47.20
46456;BME280;64052;47.466;9.094;2023-04-25T15:28:20;95422.50;;;13.29;47.51
46456;BME280;64052;47.466;9.094;2023-04-25T15:33:22;95432.13;;;13.30;47.87
46456;BME280;64052;47.466;9.094;2023-04-25T15:38:23;95431.81;;;13.68;47.29
46456;BME280;64052;47.466;9.094;2023-04-25T15:43:25;95435.31;;;13.77;48.33
46456;BME280;64052;47.466;9.094;2023-04-25T15:48:26;95429.03;;;13.78;47.01
46456;BME280;64052;47.466;9.094;2023-04-25T15:53:28;95438.72;;;13.61;48.51
46456;BME280;64052;47.466;9.094;2023-04-25T15:58:29;95432.56;;;13.52;49.19
46456;BME280;64052;47.466;9.094;2023-04-25T16:03:31;95424.16;;;13.22;49.34
46456;BME280;64052;47.466;9.094;2023-04-25T16:08:50;95419.59;;;13.41;49.91
46456;BME280;64052;47.466;9.094;2023-04-25T16:13:51;95421.38;;;13.67;50.30
46456;BME280;64052;47.466;9.094;2023-04-25T16:18:53;95424.38;;;13.72;49.32
46456;BME280;64052;47.466;9.094;2023-04-25T16:23:55;95426.94;;;13.47;50.12
46456;BME280;64052;47.466;9.094;2023-04-25T16:28:56;95432.97;;;13.04;49.66
46456;BME280;64052;47.466;9.094;2023-04-25T16:33:57;95453.16;;;13.05;50.27
46456;BME280;64052;47.466;9.094;2023-04-25T16:38:59;95475.50;;;13.03;55.29
46456;BME280;64052;47.466;9.094;2023-04-25T16:44:00;95480.00;;;12.66;55.60
46456;BME280;64052;47.466;9.094;2023-04-25T16:49:02;95478.72;;;12.52;56.16
46456;BME280;64052;47.466;9.094;2023-04-25T16:54:03;95485.22;;;12.58;56.87
46456;BME280;64052;47.466;9.094;2023-04-25T16:59:05;95479.13;;;12.21;58.02
46456;BME280;64052;47.466;9.094;2023-04-25T17:04:06;95481.53;;;12.32;57.82
46456;BME280;64052;47.466;9.094;2023-04-25T17:09:08;95485.38;;;12.20;58.73
46456;BME280;64052;47.466;9.094;2023-04-25T17:14:09;95487.44;;;11.98;58.13
46456;BME280;64052;47.466;9.094;2023-04-25T17:19:11;95499.13;;;11.95;58.56
46456;BME280;64052;47.466;9.094;2023-04-25T17:24:12;95502.06;;;11.92;57.74
46456;BME280;64052;47.466;9.094;2023-04-25T17:29:14;95504.78;;;12.29;58.61
46456;BME280;64052;47.466;9.094;2023-04-25T17:34:15;95514.38;;;12.30;57.73
46456;BME280;64052;47.466;9.094;2023-04-25T17:39:17;95515.00;;;12.23;59.21
46456;BME280;64052;47.466;9.094;2023-04-25T17:44:19;95511.63;;;12.03;58.42
46456;BME280;64052;47.466;9.094;2023-04-25T17:49:21;95507.56;;;12.09;59.29
46456;BME280;64052;47.466;9.094;2023-04-25T17:54:22;95525.94;;;12.29;58.81
46456;BME280;64052;47.466;9.094;2023-04-25T17:59:24;95522.84;;;12.15;56.03
46456;BME280;64052;47.466;9.094;2023-04-25T18:04:27;95524.25;;;12.09;57.34
46456;BME280;64052;47.466;9.094;2023-04-25T18:09:31;95540.63;;;12.41;57.42
46456;BME280;64052;47.466;9.094;2023-04-25T18:14:33;95561.47;;;12.44;57.58
46456;BME280;64052;47.466;9.094;2023-04-25T18:19:34;95568.81;;;12.50;57.86
46456;BME280;64052;47.466;9.094;2023-04-25T18:24:36;95556.31;;;12.25;57.71
46456;BME280;64052;47.466;9.094;2023-04-25T18:29:37;95568.34;;;12.09;58.82
46456;BME280;64052;47.466;9.094;2023-04-25T18:34:39;95581.41;;;11.73;59.22
46456;BME280;64052;47.466;9.094;2023-04-25T18:39:40;95586.28;;;11.67;59.60
46456;BME280;64052;47.466;9.094;2023-04-25T18:44:42;95593.25;;;11.97;60.72
46456;BME280;64052;47.466;9.094;2023-04-25T18:49:44;95600.50;;;12.04;60.27
46456;BME280;64052;47.466;9.094;2023-04-25T18:54:45;95603.16;;;12.04;60.89
46456;BME280;64052;47.466;9.094;2023-04-25T18:59:46;95622.59;;;12.03;60.23
46456;BME280;64052;47.466;9.094;2023-04-25T19:04:48;95624.84;;;11.98;58.14
46456;BME280;64052;47.466;9.094;2023-04-25T19:09:50;95620.59;;;11.77;57.54
46456;BME280;64052;47.466;9.094;2023-04-25T19:14:51;95627.22;;;11.91;59.23
46456;BME280;64052;47.466;9.094;2023-04-25T19:19:53;95631.41;;;11.84;58.61
46456;BME280;64052;47.466;9.094;2023-04-25T19:24:54;95638.28;;;11.57;57.51
46456;BME280;64052;47.466;9.094;2023-04-25T19:30:10;95650.28;;;11.42;61.58
46456;BME280;64052;47.466;9.094;2023-04-25T19:35:12;95646.41;;;11.36;59.23
46456;BME280;64052;47.466;9.094;2023-04-25T19:40:14;95646.38;;;11.46;59.10
46456;BME280;64052;47.466;9.094;2023-04-25T19:45:16;95646.63;;;11.52;60.25
46456;BME280;64052;47.466;9.094;2023-04-25T19:50:18;95636.22;;;11.61;59.95
46456;BME280;64052;47.466;9.094;2023-04-25T19:55:19;95647.16;;;11.66;59.56
46456;BME280;64052;47.466;9.094;2023-04-25T20:00:21;95649.97;;;11.64;59.36
46456;BME280;64052;47.466;9.094;2023-04-25T20:05:22;95641.16;;;11.84;59.52
46456;BME280;64052;47.466;9.094;2023-04-25T20:10:24;95653.13;;;11.78;58.95
46456;BME280;64052;47.466;9.094;2023-04-25T20:15:25;95645.25;;;11.68;59.67
46456;BME280;64052;47.466;9.094;2023-04-25T20:20:27;95656.50;;;11.60;58.28
46456;BME280;64052;47.466;9.094;2023-04-25T20:25:28;95660.84;;;11.42;57.72
46456;BME280;64052;47.466;9.094;2023-04-25T20:30:30;95660.28;;;11.28;58.56
46456;BME280;64052;47.466;9.094;2023-04-25T20:35:32;95657.63;;;11.38;59.69
46456;BME280;64052;47.466;9.094;2023-04-25T20:40:33;95663.63;;;11.50;59.09
46456;BME280;64052;47.466;9.094;2023-04-25T20:45:35;95666.09;;;11.51;58.46
46456;BME280;64052;47.466;9.094;2023-04-25T20:50:36;95668.31;;;11.56;59.30
46456;BME280;64052;47.466;9.094;2023-04-25T20:55:38;95672.50;;;11.49;58.48
46456;BME280;64052;47.466;9.094;2023-04-25T21:00:39;95671.13;;;11.55;59.36
46456;BME280;64052;47.466;9.094;2023-04-25T21:05:41;95673.03;;;11.62;60.59
46456;BME280;64052;47.466;9.094;2023-04-25T21:10:42;95680.81;;;11.64;60.96
46456;BME280;64052;47.466;9.094;2023-04-25T21:15:44;95682.31;;;11.76;59.68
46456;BME280;64052;47.466;9.094;2023-04-25T21:20:45;95686.63;;;11.77;59.58
46456;BME280;64052;47.466;9.094;2023-04-25T21:25:47;95673.44;;;11.67;58.77
46456;BME280;64052;47.466;9.094;2023-04-25T21:30:48;95679.16;;;11.33;59.53
46456;BME280;64052;47.466;9.094;2023-04-25T21:35:50;95680.03;;;11.24;60.01
46456;BME280;64052;47.466;9.094;2023-04-25T21:40:52;95679.31;;;11.02;61.44
46456;BME280;64052;47.466;9.094;2023-04-25T21:45:53;95682.09;;;11.10;61.83
46456;BME280;64052;47.466;9.094;2023-04-25T21:51:15;95690.28;;;11.17;62.03
46456;BME280;64052;47.466;9.094;2023-04-25T21:56:16;95693.47;;;11.21;61.59
46456;BME280;64052;47.466;9.094;2023-04-25T22:01:18;95685.84;;;11.18;61.51
46456;BME280;64052;47.466;9.094;2023-04-25T22:06:19;95680.44;;;11.19;61.46
46456;BME280;64052;47.466;9.094;2023-04-25T22:11:21;95690.56;;;11.34;61.47
46456;BME280;64052;47.466;9.094;2023-04-25T22:16:22;95690.81;;;11.60;60.50
46456;BME280;64052;47.466;9.094;2023-04-25T22:21:25;95695.53;;;11.66;60.59
46456;BME280;64052;47.466;9.094;2023-04-25T22:26:27;95687.34;;;11.70;60.05
46456;BME280;64052;47.466;9.094;2023-04-25T22:31:28;95696.28;;;11.49;59.38
46456;BME280;64052;47.466;9.094;2023-04-25T22:36:30;95693.38;;;11.42;57.44
46456;BME280;64052;47.466;9.094;2023-04-25T22:41:31;95708.63;;;11.19;58.77
46456;BME280;64052;47.466;9.094;2023-04-25T22:46:33;95702.38;;;11.10;57.85
46456;BME280;64052;47.466;9.094;2023-04-25T22:51:34;95706.53;;;10.93;57.88
46456;BME280;64052;47.466;9.094;2023-04-25T22:56:36;95702.22;;;10.92;58.51
46456;BME280;64052;47.466;9.094;2023-04-25T23:01:37;95693.56;;;10.80;57.82
46456;BME280;64052;47.466;9.094;2023-04-25T23:06:39;95700.59;;;10.50;58.84
46456;BME280;64052;47.466;9.094;2023-04-25T23:11:41;95702.63;;;10.87;58.56
46456;BME280;64052;47.466;9.094;2023-04-25T23:16:43;95703.88;;;10.93;58.67
46456;BME280;64052;47.466;9.094;2023-04-25T23:21:44;95704.44;;;11.06;57.59
46456;BME280;64052;47.466;9.094;2023-04-25T23:26:46;95700.22;;;10.64;58.25
46456;BME280;64052;47.466;9.094;2023-04-25T23:31:47;95702.56;;;10.58;58.21
46456;BME280;64052;47.466;9.094;2023-04-25T23:36:49;95699.66;;;10.61;59.57
46456;BME280;64052;47.466;9.094;2023-04-25T23:41:50;95701.66;;;10.78;58.29
46456;BME280;64052;47.466;9.094;2023-04-25T23:46:52;95699.41;;;10.83;59.14
46456;BME280;64052;47.466;9.094;2023-04-25T23:51:53;95702.50;;;10.89;58.52
46456;BME280;64052;47.466;9.094;2023-04-25T23:56:55;95704.50;;;10.65;59.27
